createdAt,value
2022-09-30T00:01:40.997Z,13.30
2022-09-30T00:04:14.435Z,13.87
2022-09-30T00:06:42.754Z,13.20
2022-09-30T00:09:11.439Z,13.03
2022-09-30T00:11:40.317Z,12.83
2022-09-30T00:14:14.981Z,13.53
2022-09-30T00:16:43.700Z,12.63
2022-09-30T00:19:12.778Z,13.03
2022-09-30T00:21:41.375Z,13.63
2022-09-30T00:24:10.021Z,13.90
2022-09-30T00:26:38.382Z,14.03
2022-09-30T00:29:07.006Z,13.83
2022-09-30T00:31:37.654Z,13.80
2022-09-30T00:34:09.102Z,13.67
2022-09-30T00:36:43.561Z,14.27
2022-09-30T00:39:14.936Z,13.67
2022-09-30T00:41:43.677Z,14.43
2022-09-30T00:44:52.598Z,13.60
2022-09-30T00:47:43.441Z,13.53
2022-09-30T00:50:26.180Z,13.60
2022-09-30T00:53:01.873Z,13.07
2022-09-30T00:55:48.313Z,12.93
2022-09-30T00:58:25.232Z,13.80
2022-09-30T01:00:53.493Z,14.00
2022-09-30T01:03:24.401Z,13.93
2022-09-30T01:05:53.357Z,15.10
2022-09-30T01:08:23.312Z,14.13
2022-09-30T01:10:51.575Z,14.80
2022-09-30T01:13:22.405Z,13.63
2022-09-30T01:16:07.703Z,13.47
2022-09-30T01:18:54.522Z,15.47
2022-09-30T01:22:00.098Z,14.77
2022-09-30T01:25:11.468Z,14.13
2022-09-30T01:28:10.834Z,14.67
2022-09-30T01:30:57.329Z,14.53
2022-09-30T01:33:40.727Z,14.37
2022-09-30T01:36:26.266Z,14.80
2022-09-30T01:39:08.328Z,14.70
2022-09-30T01:41:46.201Z,15.53
2022-09-30T01:44:19.136Z,14.87
2022-09-30T01:46:55.266Z,14.87
2022-09-30T01:49:33.608Z,15.70
2022-09-30T01:52:08.479Z,15.57
2022-09-30T01:54:43.650Z,14.70
2022-09-30T01:57:20.242Z,16.60
2022-09-30T01:59:53.958Z,14.77
2022-09-30T02:02:27.611Z,14.30
2022-09-30T02:05:01.162Z,14.30
2022-09-30T02:07:35.212Z,14.70
2022-09-30T02:10:10.513Z,15.50
2022-09-30T02:12:48.089Z,14.37
2022-09-30T02:15:23.142Z,14.97
2022-09-30T02:17:58.295Z,16.17
2022-09-30T02:20:29.471Z,16.30
2022-09-30T02:23:05.874Z,15.10
2022-09-30T02:25:39.906Z,16.13
2022-09-30T02:28:13.711Z,16.43
2022-09-30T02:30:46.989Z,14.90
2022-09-30T02:33:22.842Z,16.87
2022-09-30T02:35:57.602Z,15.13
2022-09-30T02:38:36.976Z,16.13
2022-09-30T02:41:10.446Z,16.10
2022-09-30T02:43:42.053Z,15.73
2022-09-30T02:46:19.976Z,16.17
2022-09-30T02:48:58.273Z,14.00
2022-09-30T02:51:36.793Z,15.47
2022-09-30T02:54:17.670Z,17.00
2022-09-30T02:56:53.253Z,16.70
2022-09-30T02:59:22.339Z,15.87
2022-09-30T03:01:50.742Z,15.87
2022-09-30T03:04:26.265Z,15.30
2022-09-30T03:06:55.456Z,16.67
2022-09-30T03:09:27.071Z,16.20
2022-09-30T03:12:04.308Z,15.93
2022-09-30T03:14:52.717Z,15.60
2022-09-30T03:17:39.703Z,14.97
2022-09-30T03:20:30.189Z,14.20
2022-09-30T03:23:21.323Z,14.93
2022-09-30T03:26:01.194Z,15.47
2022-09-30T03:28:34.565Z,15.00
2022-09-30T03:31:11.525Z,15.00
2022-09-30T03:33:50.516Z,14.40
2022-09-30T03:36:29.422Z,14.67
2022-09-30T03:39:06.863Z,16.20
2022-09-30T03:41:41.846Z,13.93
2022-09-30T03:44:17.926Z,14.10
2022-09-30T03:46:51.741Z,14.80
2022-09-30T03:49:24.606Z,14.63
2022-09-30T03:51:58.534Z,14.90
2022-09-30T03:54:27.764Z,14.97
2022-09-30T03:56:55.878Z,13.80
2022-09-30T03:59:28.557Z,15.90
2022-09-30T04:01:57.610Z,15.00
2022-09-30T04:04:25.989Z,14.90
2022-09-30T04:06:55.487Z,14.03
2022-09-30T04:09:24.508Z,14.97
2022-09-30T04:11:52.905Z,14.03
2022-09-30T04:14:20.991Z,14.40
2022-09-30T04:16:53.192Z,14.40
2022-09-30T04:19:22.565Z,15.40
2022-09-30T04:21:53.831Z,17.87
2022-09-30T04:24:24.639Z,15.03
2022-09-30T04:26:53.146Z,14.43
2022-09-30T04:29:21.297Z,15.90
2022-09-30T04:31:49.463Z,14.43
2022-09-30T04:34:17.658Z,15.30
2022-09-30T04:36:45.945Z,14.37
2022-09-30T04:39:14.153Z,15.47
2022-09-30T04:41:43.733Z,17.27
2022-09-30T04:44:13.156Z,17.67
2022-09-30T04:46:41.436Z,17.27
2022-09-30T04:49:09.750Z,15.17
2022-09-30T04:51:43.824Z,16.07
2022-09-30T04:54:11.941Z,16.53
2022-09-30T04:56:40.184Z,14.77
2022-09-30T04:59:09.802Z,16.00
2022-09-30T05:01:39.269Z,17.03
2022-09-30T05:04:08.207Z,15.17
2022-09-30T05:06:36.355Z,15.90
2022-09-30T05:09:04.768Z,17.20
2022-09-30T05:11:32.973Z,17.67
2022-09-30T05:14:01.407Z,15.00
2022-09-30T05:16:30.939Z,14.73
2022-09-30T05:18:59.110Z,14.53
2022-09-30T05:21:27.291Z,14.57
2022-09-30T05:23:55.645Z,16.53
2022-09-30T05:26:23.776Z,14.30
2022-09-30T05:28:51.934Z,14.47
2022-09-30T05:31:20.887Z,14.93
2022-09-30T05:33:53.551Z,16.20
2022-09-30T05:36:25.505Z,16.13
2022-09-30T05:38:54.241Z,16.20
2022-09-30T05:41:23.011Z,17.40
2022-09-30T05:43:51.764Z,17.17
2022-09-30T05:46:21.583Z,22.27
2022-09-30T05:48:54.744Z,21.17
2022-09-30T05:51:23.165Z,18.53
2022-09-30T05:53:54.002Z,19.43
2022-09-30T05:56:22.304Z,17.73
2022-09-30T05:58:50.981Z,18.37
2022-09-30T06:01:19.252Z,18.83
2022-09-30T06:03:47.876Z,21.97
2022-09-30T06:06:19.119Z,22.33
2022-09-30T06:08:47.806Z,19.30
2022-09-30T06:11:18.742Z,23.13
2022-09-30T06:13:49.197Z,21.10
2022-09-30T06:16:19.045Z,19.00
2022-09-30T06:18:47.741Z,21.37
2022-09-30T06:21:19.423Z,19.97
2022-09-30T06:23:47.731Z,20.90
2022-09-30T06:26:16.430Z,19.57
2022-09-30T06:28:45.240Z,18.33
2022-09-30T06:31:13.610Z,18.53
2022-09-30T06:33:42.529Z,19.47
2022-09-30T06:36:10.840Z,19.90
2022-09-30T06:38:40.535Z,19.13
2022-09-30T06:41:09.732Z,17.53
2022-09-30T06:43:41.354Z,21.07
2022-09-30T06:46:17.645Z,19.47
2022-09-30T06:48:48.601Z,20.00
2022-09-30T06:51:17.021Z,19.93
2022-09-30T06:53:49.010Z,21.63
2022-09-30T06:56:21.213Z,21.43
2022-09-30T06:58:49.491Z,22.90
2022-09-30T07:01:17.620Z,23.10
2022-09-30T07:03:51.433Z,24.23
2022-09-30T07:06:22.170Z,22.47
2022-09-30T07:08:51.653Z,25.63
2022-09-30T07:11:19.745Z,24.67
2022-09-30T07:13:49.600Z,25.07
2022-09-30T07:16:21.230Z,25.33
2022-09-30T07:18:49.597Z,23.67
2022-09-30T07:21:17.768Z,23.53
2022-09-30T07:23:47.704Z,23.47
2022-09-30T07:26:19.714Z,22.80
2022-09-30T07:28:48.271Z,22.77
2022-09-30T07:31:32.373Z,22.50
2022-09-30T07:34:01.551Z,23.57
2022-09-30T07:36:33.579Z,23.77
2022-09-30T07:39:06.783Z,22.90
2022-09-30T07:41:40.084Z,21.87
2022-09-30T07:44:13.177Z,21.73
2022-09-30T07:46:42.364Z,19.93
2022-09-30T07:49:16.673Z,19.47
2022-09-30T07:51:45.610Z,18.80
2022-09-30T07:54:16.594Z,17.77
2022-09-30T07:59:37.494Z,16.50
2022-09-30T08:02:06.793Z,15.33
2022-09-30T08:04:35.993Z,14.47
2022-09-30T08:07:06.123Z,16.57
2022-09-30T08:09:34.927Z,14.20
2022-09-30T08:12:05.817Z,13.33
2022-09-30T08:14:34.032Z,14.07
2022-09-30T08:17:02.515Z,13.90
2022-09-30T08:19:33.668Z,13.47
2022-09-30T08:24:31.385Z,15.70
2022-09-30T08:27:00.045Z,14.37
2022-09-30T08:29:53.224Z,14.10
2022-09-30T08:32:18.237Z,14.30
2022-09-30T08:34:46.359Z,14.23
2022-09-30T08:37:14.415Z,12.77
2022-09-30T08:39:43.464Z,14.00
2022-09-30T08:42:37.286Z,12.53
2022-09-30T08:45:21.573Z,12.97
2022-09-30T08:48:00.313Z,13.93
2022-09-30T08:50:39.466Z,13.27
2022-09-30T08:53:18.946Z,12.00
2022-09-30T08:55:47.711Z,11.53
2022-09-30T08:58:25.097Z,12.33
2022-09-30T09:01:01.041Z,11.53
2022-09-30T09:03:31.791Z,10.83
2022-09-30T09:06:22.106Z,11.20
2022-09-30T09:09:12.758Z,11.00
2022-09-30T09:11:56.031Z,11.27
2022-09-30T09:14:39.286Z,10.60
2022-09-30T09:17:26.042Z,10.53
2022-09-30T09:20:03.112Z,9.87
2022-09-30T09:22:33.138Z,10.63
2022-09-30T09:25:03.278Z,10.87
2022-09-30T09:27:46.362Z,11.43
2022-09-30T09:30:17.416Z,10.83
2022-09-30T09:32:53.391Z,10.70
2022-09-30T09:35:37.982Z,11.53
2022-09-30T09:38:26.874Z,11.20
2022-09-30T09:41:11.014Z,9.77
2022-09-30T09:44:00.354Z,9.97
2022-09-30T09:46:32.335Z,10.20
2022-09-30T09:49:35.083Z,9.13
2022-09-30T09:52:49.130Z,10.07
2022-09-30T09:55:22.839Z,10.00
2022-09-30T09:58:07.576Z,9.50
2022-09-30T10:00:58.968Z,8.73
2022-09-30T10:03:28.671Z,8.33
2022-09-30T10:06:09.043Z,8.73
2022-09-30T10:08:39.706Z,8.47
2022-09-30T10:11:19.301Z,7.50
2022-09-30T10:13:47.826Z,6.73
2022-09-30T10:16:32.494Z,7.37
2022-09-30T10:19:03.132Z,6.37
2022-09-30T10:21:35.561Z,5.50
2022-09-30T10:24:24.663Z,5.43
2022-09-30T10:26:52.810Z,5.30
2022-09-30T10:29:29.954Z,5.30
2022-09-30T10:32:00.458Z,4.83
2022-09-30T10:34:31.758Z,5.07
2022-09-30T10:37:09.253Z,4.97
2022-09-30T10:39:40.175Z,5.53
2022-09-30T10:42:17.432Z,5.77
2022-09-30T10:44:50.391Z,5.77
2022-09-30T10:47:21.842Z,5.93
2022-09-30T10:49:52.955Z,5.90
2022-09-30T10:52:25.861Z,5.80
2022-09-30T10:54:56.607Z,5.80
2022-09-30T10:57:28.832Z,6.00
2022-09-30T11:00:01.614Z,4.63
2022-09-30T11:02:35.558Z,4.70
2022-09-30T11:05:13.602Z,4.80
2022-09-30T11:07:48.021Z,4.20
2022-09-30T11:10:32.853Z,3.63
2022-09-30T11:13:08.667Z,3.23
2022-09-30T11:15:46.919Z,3.10
2022-09-30T11:18:25.038Z,3.07
2022-09-30T11:20:58.440Z,2.80
2022-09-30T11:23:33.884Z,2.60
2022-09-30T11:26:09.135Z,2.60
2022-09-30T11:28:55.105Z,2.20
2022-09-30T11:31:32.593Z,2.80
2022-09-30T11:34:20.072Z,2.77
2022-09-30T11:36:59.889Z,2.30
2022-09-30T11:39:59.231Z,2.60
2022-09-30T11:42:37.592Z,3.20
2022-09-30T11:45:23.437Z,3.13
2022-09-30T11:48:13.526Z,3.27
2022-09-30T11:50:55.990Z,3.80
2022-09-30T11:53:39.943Z,4.53
2022-09-30T11:56:27.253Z,4.23
2022-09-30T11:59:00.321Z,3.90
2022-09-30T12:01:33.614Z,4.30
2022-09-30T12:04:09.016Z,3.97
2022-09-30T12:06:41.882Z,4.23
2022-09-30T12:09:19.609Z,4.07
2022-09-30T12:11:57.004Z,3.90
2022-09-30T12:14:32.995Z,3.87
2022-09-30T12:17:04.539Z,3.67
2022-09-30T12:19:37.770Z,3.10
2022-09-30T12:22:13.054Z,2.90
2022-09-30T12:24:45.595Z,2.93
2022-09-30T12:27:23.677Z,2.90
2022-09-30T12:30:17.553Z,2.20
2022-09-30T12:33:22.211Z,2.20
2022-09-30T12:36:40.005Z,2.30
2022-09-30T12:39:52.807Z,2.80
2022-09-30T12:42:43.932Z,2.30
2022-09-30T12:46:04.602Z,2.30
2022-09-30T12:48:39.302Z,1.87
2022-09-30T12:51:08.498Z,2.45
2022-09-30T12:53:40.074Z,2.17
2022-09-30T12:56:11.100Z,1.83
2022-09-30T12:58:53.088Z,2.40
2022-09-30T13:01:25.760Z,2.47
2022-09-30T13:04:18.487Z,2.70
2022-09-30T13:07:14.160Z,2.70
2022-09-30T13:10:26.112Z,2.85
2022-09-30T13:13:24.602Z,3.00
2022-09-30T13:15:56.226Z,3.70
2022-09-30T13:19:03.124Z,3.90
2022-09-30T13:21:33.725Z,4.13
2022-09-30T13:24:02.200Z,4.20
2022-09-30T13:26:43.095Z,4.87
2022-09-30T13:29:38.338Z,5.17
2022-09-30T13:32:10.528Z,4.50
2022-09-30T13:34:58.810Z,5.03
2022-09-30T13:37:39.489Z,5.47
2022-09-30T13:40:32.928Z,5.47
2022-09-30T13:43:16.584Z,5.63
2022-09-30T13:45:47.037Z,5.90
2022-09-30T13:48:20.482Z,6.50
2022-09-30T13:50:52.648Z,5.67
2022-09-30T13:53:31.083Z,6.20
2022-09-30T13:56:02.555Z,5.77
2022-09-30T13:59:19.268Z,5.63
2022-09-30T14:02:10.102Z,6.63
2022-09-30T14:05:08.695Z,6.60
2022-09-30T14:07:51.418Z,6.63
2022-09-30T14:10:40.076Z,6.20
2022-09-30T14:13:25.858Z,6.10
2022-09-30T14:16:14.008Z,7.40
2022-09-30T14:19:13.430Z,7.47
2022-09-30T14:21:48.155Z,8.73
2022-09-30T14:24:23.961Z,9.13
2022-09-30T14:27:19.425Z,8.57
2022-09-30T14:30:01.452Z,10.40
2022-09-30T14:32:32.804Z,9.83
2022-09-30T14:35:06.225Z,10.10
2022-09-30T14:37:40.730Z,10.00
2022-09-30T14:40:14.009Z,10.87
2022-09-30T14:42:44.310Z,10.40
2022-09-30T14:45:22.238Z,10.07
2022-09-30T14:47:52.918Z,9.90
2022-09-30T14:50:26.014Z,10.30
2022-09-30T14:52:58.776Z,10.73
2022-09-30T14:55:31.662Z,11.60
2022-09-30T14:58:28.429Z,11.03
2022-09-30T15:01:07.059Z,10.27
2022-09-30T15:03:38.026Z,11.10
2022-09-30T15:06:08.215Z,9.87
2022-09-30T15:08:37.735Z,9.77
2022-09-30T15:11:06.364Z,11.00
2022-09-30T15:13:36.047Z,11.47
2022-09-30T15:16:04.246Z,10.73
2022-09-30T15:18:36.433Z,11.33
2022-09-30T15:21:12.098Z,10.60
2022-09-30T15:23:46.878Z,10.00
2022-09-30T15:26:16.185Z,10.30
2022-09-30T15:28:44.419Z,11.03
2022-09-30T15:31:23.663Z,11.40
2022-09-30T15:34:06.832Z,10.23
2022-09-30T15:36:37.171Z,11.03
2022-09-30T15:39:13.864Z,9.77
2022-09-30T15:41:42.430Z,9.97
2022-09-30T15:44:19.973Z,9.73
2022-09-30T15:47:04.334Z,10.47
2022-09-30T15:49:36.262Z,9.87
2022-09-30T15:52:39.000Z,9.73
2022-09-30T15:55:42.252Z,10.43
2022-09-30T15:58:37.911Z,11.00
2022-09-30T16:01:19.570Z,10.63
2022-09-30T16:03:54.196Z,10.70
2022-09-30T16:06:27.612Z,10.63
2022-09-30T16:09:02.218Z,10.73
2022-09-30T16:11:36.679Z,11.20
2022-09-30T16:14:10.119Z,10.63
2022-09-30T16:16:40.066Z,11.50
2022-09-30T16:19:16.902Z,11.33
2022-09-30T16:21:50.916Z,11.27
2022-09-30T16:24:50.200Z,11.03
2022-09-30T16:27:32.601Z,11.33
2022-09-30T16:30:01.610Z,12.00
2022-09-30T16:32:33.902Z,11.40
2022-09-30T16:35:02.295Z,11.27
2022-09-30T16:37:30.881Z,11.73
2022-09-30T16:40:17.115Z,11.47
2022-09-30T16:42:46.778Z,10.90
2022-09-30T16:45:16.085Z,11.00
2022-09-30T16:47:44.826Z,10.90
2022-09-30T16:50:25.014Z,10.30
2022-09-30T16:52:53.100Z,10.80
2022-09-30T16:55:21.415Z,10.57
2022-09-30T16:57:51.004Z,9.93
2022-09-30T17:00:19.793Z,10.63
2022-09-30T17:02:50.287Z,10.37
2022-09-30T17:05:20.737Z,9.60
2022-09-30T17:07:53.332Z,9.90
2022-09-30T17:10:25.624Z,10.50
2022-09-30T17:12:55.227Z,10.10
2022-09-30T17:15:24.135Z,9.80
2022-09-30T17:17:52.746Z,9.70
2022-09-30T17:20:21.285Z,9.97
2022-09-30T17:22:50.202Z,9.20
2022-09-30T17:25:20.301Z,9.23
2022-09-30T17:27:50.182Z,9.53
2022-09-30T17:30:20.391Z,9.73
2022-09-30T17:32:48.881Z,10.10
2022-09-30T17:35:17.535Z,11.93
2022-09-30T17:37:46.685Z,12.60
2022-09-30T17:40:32.738Z,12.63
2022-09-30T17:43:11.019Z,14.30
2022-09-30T17:45:43.283Z,15.40
2022-09-30T17:48:13.487Z,16.40
2022-09-30T17:50:45.206Z,16.93
2022-09-30T17:53:16.814Z,16.77
2022-09-30T17:55:47.376Z,16.13
2022-09-30T17:58:16.778Z,15.90
2022-09-30T18:00:47.486Z,15.60
2022-09-30T18:03:15.657Z,15.33
2022-09-30T18:05:45.445Z,14.07
2022-09-30T18:08:13.777Z,14.27
2022-09-30T18:10:41.873Z,14.57
2022-09-30T18:13:11.466Z,14.27
2022-09-30T18:15:40.394Z,14.90
2022-09-30T18:18:09.770Z,13.30
2022-09-30T18:20:38.300Z,13.63
2022-09-30T18:23:06.472Z,14.57
2022-09-30T18:25:34.708Z,13.67
2022-09-30T18:28:03.949Z,13.73
2022-09-30T18:30:32.150Z,14.07
2022-09-30T18:33:00.273Z,12.90
2022-09-30T18:35:30.189Z,13.30
2022-09-30T18:37:58.606Z,13.23
2022-09-30T18:40:28.332Z,13.30
2022-09-30T18:42:59.333Z,13.03
2022-09-30T18:45:28.450Z,13.87
2022-09-30T18:47:58.807Z,13.20
2022-09-30T18:50:30.491Z,13.97
2022-09-30T18:53:02.089Z,13.50
2022-09-30T18:55:32.227Z,13.80
2022-09-30T18:58:00.356Z,13.57
2022-09-30T19:00:31.208Z,13.10
2022-09-30T19:02:59.505Z,12.77
2022-09-30T19:05:29.974Z,12.53
2022-09-30T19:07:58.079Z,12.77
2022-09-30T19:10:26.356Z,13.03
2022-09-30T19:12:54.458Z,12.20
2022-09-30T19:15:23.535Z,12.87
2022-09-30T19:17:53.072Z,13.13
2022-09-30T19:20:21.696Z,12.03
2022-09-30T19:22:52.275Z,12.07
2022-09-30T19:25:20.685Z,11.60
2022-09-30T19:27:49.528Z,11.53
2022-09-30T19:30:17.757Z,11.43
2022-09-30T19:32:46.300Z,10.80
2022-09-30T19:35:14.735Z,11.40
2022-09-30T19:37:55.002Z,10.77
2022-09-30T19:43:06.856Z,10.63
2022-09-30T19:45:35.175Z,10.67
2022-09-30T19:48:03.327Z,10.00
2022-09-30T19:50:31.418Z,9.90
2022-09-30T19:52:59.998Z,9.80
2022-09-30T19:55:30.252Z,10.43
2022-09-30T19:57:59.333Z,9.73
2022-09-30T20:00:27.442Z,9.70
2022-09-30T20:02:56.206Z,8.83
2022-09-30T20:05:24.353Z,9.97
2022-09-30T20:07:53.416Z,8.70
2022-09-30T20:10:21.553Z,8.63
2022-09-30T20:12:51.139Z,8.50
2022-09-30T20:15:37.354Z,8.93
2022-09-30T20:18:05.877Z,8.80
2022-09-30T20:20:38.422Z,8.57
2022-09-30T20:23:06.555Z,9.30
2022-09-30T20:25:36.345Z,9.13
2022-09-30T20:28:06.961Z,8.73
2022-09-30T20:30:42.806Z,10.07
2022-09-30T20:33:10.919Z,9.47
2022-09-30T20:35:39.136Z,9.20
2022-09-30T20:38:10.883Z,9.10
2022-09-30T20:40:40.005Z,8.97
2022-09-30T20:43:10.237Z,9.50
2022-09-30T20:45:41.374Z,8.30
2022-09-30T20:48:09.741Z,9.50
2022-09-30T20:50:43.394Z,9.70
2022-09-30T20:53:14.627Z,8.73
2022-09-30T20:55:44.563Z,8.10
2022-09-30T20:58:14.606Z,8.33
2022-09-30T21:00:44.255Z,8.47
2022-09-30T21:03:14.777Z,8.10
2022-09-30T21:05:52.977Z,8.30
2022-09-30T21:08:21.220Z,7.67
2022-09-30T21:10:49.306Z,7.60
2022-09-30T21:13:19.050Z,7.37
2022-09-30T21:15:47.267Z,7.60
2022-09-30T21:18:15.493Z,7.00
2022-09-30T21:20:43.600Z,7.27
2022-09-30T21:23:12.781Z,7.30
2022-09-30T21:25:43.284Z,7.23
2022-09-30T21:28:11.390Z,6.23
2022-09-30T21:30:42.224Z,6.20
2022-09-30T21:33:10.288Z,5.97
2022-09-30T21:35:38.472Z,6.30
2022-09-30T21:38:06.676Z,5.37
2022-09-30T21:40:34.861Z,5.30
2022-09-30T21:43:04.409Z,5.57
2022-09-30T21:45:32.581Z,5.23
2022-09-30T21:48:07.350Z,5.40
2022-09-30T21:50:36.174Z,5.30
2022-09-30T21:53:04.616Z,5.60
2022-09-30T21:55:33.414Z,5.43
2022-09-30T21:58:01.512Z,5.83
2022-09-30T22:00:29.685Z,5.80
2022-09-30T22:02:58.804Z,5.43
2022-09-30T22:05:28.304Z,5.50
2022-09-30T22:07:59.444Z,5.43
2022-09-30T22:10:27.794Z,5.40
2022-09-30T22:12:55.950Z,5.20
2022-09-30T22:15:24.140Z,5.60
2022-09-30T22:17:52.507Z,5.07
2022-09-30T22:20:21.381Z,4.97
2022-09-30T22:22:50.870Z,5.10
2022-09-30T22:25:20.372Z,5.20
2022-09-30T22:27:48.505Z,4.87
2022-09-30T22:30:16.850Z,5.03
2022-09-30T22:32:45.002Z,4.93
2022-09-30T22:35:30.938Z,5.33
2022-09-30T22:38:18.253Z,5.20
2022-09-30T22:40:46.500Z,5.03
2022-09-30T22:43:15.264Z,4.67
2022-09-30T22:45:43.879Z,4.60
2022-09-30T22:48:12.028Z,4.73
2022-09-30T22:50:40.453Z,4.73
2022-09-30T22:53:09.969Z,5.00
2022-09-30T22:55:38.193Z,4.57
2022-09-30T22:58:06.328Z,5.10
2022-09-30T23:00:34.413Z,4.97
2022-09-30T23:03:03.549Z,5.53
2022-09-30T23:05:39.199Z,5.53
2022-09-30T23:08:07.319Z,5.70
2022-09-30T23:10:38.448Z,5.80
2022-09-30T23:13:08.863Z,5.90
2022-09-30T23:15:36.962Z,6.50
2022-09-30T23:18:05.142Z,6.90
2022-09-30T23:20:33.237Z,7.10
2022-09-30T23:23:01.342Z,6.57
2022-09-30T23:25:29.489Z,6.87
2022-09-30T23:27:59.153Z,7.30
2022-09-30T23:30:27.841Z,7.33
2022-09-30T23:32:55.861Z,7.03
2022-09-30T23:35:24.058Z,8.27
2022-09-30T23:37:52.926Z,8.33
2022-09-30T23:40:21.025Z,7.77
2022-09-30T23:42:50.439Z,7.83
2022-09-30T23:45:19.897Z,9.13
2022-09-30T23:47:49.252Z,8.47
2022-09-30T23:50:17.466Z,8.00
2022-09-30T23:52:45.628Z,9.20
2022-09-30T23:55:13.720Z,8.50
2022-09-30T23:57:42.157Z,8.90
